createdAt,value
2022-11-24T00:00:10.710Z,0.01
2022-11-24T00:04:29.541Z,0.02
2022-11-24T00:08:28.330Z,-0.02
2022-11-24T00:12:28.050Z,-0.02
2022-11-24T00:16:28.624Z,0.02
2022-11-24T00:20:27.487Z,0.00
2022-11-24T00:24:26.296Z,-0.01
2022-11-24T00:28:26.404Z,-0.02
2022-11-24T00:32:31.073Z,-0.02
2022-11-24T00:36:31.074Z,-0.04
2022-11-24T00:40:34.820Z,-0.01
2022-11-24T00:44:34.304Z,-0.05
2022-11-24T00:48:34.248Z,-0.05
2022-11-24T00:52:33.123Z,-0.04
2022-11-24T00:56:32.220Z,-0.03
2022-11-24T01:00:32.001Z,-0.06
2022-11-24T01:04:31.312Z,-0.05
2022-11-24T01:08:30.751Z,-0.07
2022-11-24T01:12:49.822Z,-0.09
2022-11-24T01:16:13.396Z,-0.07
2022-11-24T01:20:12.706Z,-0.04
2022-11-24T01:24:12.021Z,-0.04
2022-11-24T01:28:10.911Z,-0.02
2022-11-24T01:32:09.749Z,-0.03
2022-11-24T01:36:09.241Z,-0.03
2022-11-24T01:40:08.802Z,-0.06
2022-11-24T01:44:26.768Z,-0.05
2022-11-24T01:48:28.806Z,-0.02
2022-11-24T01:52:40.034Z,-0.03
2022-11-24T01:56:40.794Z,-0.01
2022-11-24T02:00:41.409Z,-0.03
2022-11-24T02:04:41.248Z,-0.05
2022-11-24T02:08:59.545Z,-0.01
2022-11-24T02:13:00.104Z,0.00
2022-11-24T02:16:59.198Z,0.02
2022-11-24T02:20:59.463Z,0.06
2022-11-24T02:25:12.000Z,0.06
2022-11-24T02:29:13.620Z,0.05
2022-11-24T02:32:48.533Z,0.05
2022-11-24T02:36:48.047Z,0.06
2022-11-24T02:40:48.522Z,0.05
2022-11-24T02:44:49.983Z,-0.01
2022-11-24T02:48:49.945Z,-0.04
2022-11-24T02:52:49.987Z,-0.05
2022-11-24T02:56:49.029Z,-0.05
2022-11-24T03:00:48.042Z,-0.07
2022-11-24T03:04:46.588Z,-0.05
2022-11-24T03:08:45.502Z,-0.07
2022-11-24T03:12:44.322Z,-0.09
2022-11-24T03:16:43.778Z,-0.11
2022-11-24T03:20:43.057Z,-0.12
2022-11-24T03:24:41.865Z,-0.11
2022-11-24T03:28:40.700Z,-0.10
2022-11-24T03:32:39.646Z,-0.10
2022-11-24T03:36:38.884Z,-0.09
2022-11-24T03:40:37.483Z,-0.08
2022-11-24T03:44:36.843Z,-0.12
2022-11-24T03:48:36.041Z,-0.11
2022-11-24T03:52:34.904Z,-0.08
2022-11-24T03:56:34.101Z,-0.05
2022-11-24T04:00:33.230Z,-0.06
2022-11-24T04:04:32.745Z,-0.06
2022-11-24T04:08:32.183Z,-0.10
2022-11-24T04:12:49.722Z,-0.11
2022-11-24T04:16:49.005Z,-0.10
2022-11-24T04:20:51.453Z,-0.08
2022-11-24T04:24:50.283Z,-0.10
2022-11-24T04:28:49.157Z,-0.09
2022-11-24T04:32:48.782Z,-0.13
2022-11-24T04:36:47.737Z,-0.15
2022-11-24T04:40:47.117Z,-0.18
2022-11-24T04:44:46.636Z,-0.18
2022-11-24T04:49:05.204Z,-0.19
2022-11-24T04:52:24.729Z,-0.17
2022-11-24T04:56:23.891Z,-0.17
2022-11-24T05:00:23.147Z,-0.17
2022-11-24T05:04:22.852Z,-0.17
2022-11-24T05:08:21.917Z,-0.19
2022-11-24T05:12:21.117Z,-0.22
2022-11-24T05:16:19.861Z,-0.24
2022-11-24T05:20:19.737Z,-0.24
2022-11-24T05:24:19.141Z,-0.26
2022-11-24T05:28:18.304Z,-0.26
2022-11-24T05:32:17.075Z,-0.24
2022-11-24T05:36:34.217Z,-0.26
2022-11-24T05:40:33.156Z,-0.25
2022-11-24T05:44:32.679Z,-0.24
2022-11-24T05:48:31.655Z,-0.24
2022-11-24T05:52:31.314Z,-0.22
2022-11-24T05:56:30.412Z,-0.17
2022-11-24T06:00:30.150Z,-0.16
2022-11-24T06:04:29.124Z,-0.19
2022-11-24T06:08:31.046Z,-0.16
2022-11-24T06:12:30.547Z,-0.13
2022-11-24T06:16:29.489Z,-0.14
2022-11-24T06:20:32.641Z,-0.14
2022-11-24T06:24:32.543Z,-0.17
2022-11-24T06:28:31.771Z,-0.12
2022-11-24T06:32:30.512Z,-0.10
2022-11-24T06:36:29.447Z,-0.11
2022-11-24T06:40:28.288Z,-0.10
2022-11-24T06:44:27.468Z,-0.07
2022-11-24T06:48:27.004Z,-0.08
2022-11-24T06:52:28.086Z,-0.05
2022-11-24T06:56:08.373Z,-0.02
2022-11-24T07:00:12.085Z,-0.02
2022-11-24T07:04:11.585Z,-0.04
2022-11-24T07:08:14.701Z,-0.05
2022-11-24T07:12:16.807Z,-0.04
2022-11-24T07:16:15.777Z,-0.03
2022-11-24T07:20:14.974Z,-0.04
2022-11-24T07:24:14.211Z,-0.06
2022-11-24T07:28:13.588Z,-0.05
2022-11-24T07:32:13.072Z,-0.04
2022-11-24T07:36:11.949Z,-0.05
2022-11-24T07:40:11.474Z,-0.04
2022-11-24T07:44:29.074Z,-0.03
2022-11-24T07:47:47.990Z,-0.00
2022-11-24T07:51:46.856Z,0.03
2022-11-24T07:55:52.986Z,0.03
2022-11-24T07:59:51.827Z,0.02
2022-11-24T08:03:50.983Z,-0.00
2022-11-24T08:07:52.221Z,-0.02
2022-11-24T08:11:28.503Z,-0.02
2022-11-24T08:15:28.087Z,-0.00
2022-11-24T08:19:26.926Z,0.00
2022-11-24T08:23:26.511Z,0.01
2022-11-24T08:27:25.938Z,0.00
2022-11-24T08:31:27.539Z,0.03
2022-11-24T08:35:26.008Z,0.04
2022-11-24T08:39:25.050Z,0.03
2022-11-24T08:43:31.347Z,0.04
2022-11-24T08:47:01.909Z,0.05
2022-11-24T08:55:32.847Z,0.09
2022-11-24T08:59:31.680Z,0.11
2022-11-24T09:03:30.969Z,0.10
2022-11-24T09:07:30.017Z,0.12
2022-11-24T09:11:43.328Z,0.13
2022-11-24T09:15:42.244Z,0.10
2022-11-24T09:19:41.997Z,0.08
2022-11-24T09:23:41.849Z,0.08
2022-11-24T09:27:40.731Z,0.08
2022-11-24T09:31:39.782Z,0.07
2022-11-24T09:35:38.974Z,0.07
2022-11-24T09:39:37.903Z,0.06
2022-11-24T09:43:46.180Z,0.06
2022-11-24T09:47:54.329Z,0.05
2022-11-24T09:51:55.591Z,0.07
2022-11-24T09:55:59.057Z,0.08
2022-11-24T09:59:32.868Z,0.06
2022-11-24T10:03:48.366Z,0.06
2022-11-24T10:08:06.309Z,0.06
2022-11-24T10:12:23.849Z,0.08
2022-11-24T10:16:34.265Z,0.11
2022-11-24T10:20:49.775Z,0.13
2022-11-24T10:25:07.248Z,0.17
2022-11-24T10:29:21.955Z,0.20
2022-11-24T10:33:28.848Z,0.20
2022-11-24T10:37:46.468Z,0.23
2022-11-24T10:42:04.190Z,0.23
2022-11-24T10:46:18.146Z,0.23
2022-11-24T10:50:24.511Z,0.25
2022-11-24T10:54:24.176Z,0.29
2022-11-24T10:58:25.825Z,0.31
2022-11-24T11:02:27.775Z,0.32
2022-11-24T11:06:27.403Z,0.33
2022-11-24T11:10:26.237Z,0.34
2022-11-24T11:14:33.229Z,0.33
2022-11-24T11:18:33.500Z,0.33
2022-11-24T11:22:33.507Z,0.33
2022-11-24T11:26:34.762Z,0.33
2022-11-24T11:34:55.052Z,0.36
2022-11-24T11:39:31.473Z,0.36
2022-11-24T11:47:05.911Z,0.31
2022-11-24T11:51:22.777Z,0.28
2022-11-24T11:55:33.777Z,0.26
2022-11-24T11:59:39.273Z,0.24
2022-11-24T12:03:38.542Z,0.25
2022-11-24T12:07:37.697Z,0.26
2022-11-24T12:11:44.269Z,0.28
2022-11-24T12:15:48.656Z,0.30
2022-11-24T12:19:59.916Z,0.30
2022-11-24T12:24:18.789Z,0.34
2022-11-24T12:28:20.686Z,0.36
2022-11-24T12:32:26.116Z,0.35
2022-11-24T12:36:30.790Z,0.33
2022-11-24T12:40:32.530Z,0.30
2022-11-24T12:44:47.249Z,0.27
2022-11-24T12:49:03.439Z,0.42
2022-11-24T12:53:17.411Z,0.88
2022-11-24T12:57:21.565Z,1.04
2022-11-24T13:01:39.417Z,0.87
2022-11-24T13:05:48.268Z,0.69
2022-11-24T13:10:05.880Z,0.57
2022-11-24T13:14:23.686Z,0.54
2022-11-24T13:18:42.264Z,0.52
2022-11-24T13:22:47.381Z,0.51
2022-11-24T13:26:50.965Z,0.50
2022-11-24T13:30:54.622Z,0.51
2022-11-24T13:34:55.452Z,0.53
2022-11-24T13:38:55.279Z,0.56
2022-11-24T13:42:54.687Z,0.56
2022-11-24T13:47:05.832Z,0.60
2022-11-24T13:51:15.224Z,0.64
2022-11-24T13:55:13.990Z,0.66
2022-11-24T13:59:18.912Z,0.68
2022-11-24T14:03:18.249Z,0.69
2022-11-24T14:07:17.823Z,0.69
2022-11-24T14:11:17.588Z,0.70
2022-11-24T14:15:34.329Z,0.71
2022-11-24T14:19:53.609Z,0.72
2022-11-24T14:23:12.779Z,0.71
2022-11-24T14:32:18.823Z,0.75
2022-11-24T14:36:18.822Z,0.75
2022-11-24T14:40:37.098Z,0.74
2022-11-24T14:44:58.002Z,0.75
2022-11-24T14:48:36.392Z,0.74
2022-11-24T14:52:10.735Z,0.75
2022-11-24T14:56:22.098Z,0.76
2022-11-24T15:00:33.621Z,0.78
2022-11-24T15:08:55.429Z,0.79
2022-11-24T15:12:57.040Z,0.80
2022-11-24T15:16:58.682Z,0.82
2022-11-24T15:20:57.973Z,0.82
2022-11-24T15:24:58.326Z,0.82
2022-11-24T15:29:00.826Z,0.82
2022-11-24T15:33:02.787Z,0.81
2022-11-24T15:37:04.551Z,0.81
2022-11-24T15:41:16.002Z,0.80
2022-11-24T15:45:17.287Z,0.79
2022-11-24T15:49:17.611Z,0.78
2022-11-24T15:53:20.657Z,0.78
2022-11-24T15:56:55.150Z,0.78
2022-11-24T16:01:15.021Z,0.79
2022-11-24T16:04:33.910Z,0.82
2022-11-24T16:12:59.651Z,0.83
2022-11-24T16:16:59.348Z,0.81
2022-11-24T16:20:58.067Z,0.82
2022-11-24T16:24:58.438Z,0.81
2022-11-24T16:28:57.368Z,0.80
2022-11-24T16:33:01.805Z,0.84
2022-11-24T16:37:02.553Z,0.85
2022-11-24T16:41:17.316Z,0.86
